Time;durP1;ratioP1;P1;durP2;ratioP2;P2;SDS_P1;SDS_P2;PMS_P1;PMS_P2;Temp;Humidity;BMP_temperature;BMP_pressure;BME280_temperature;BME280_humidity;BME280_pressure;Samples;Min_cycle;Max_cycle;Signal;HPM_P1;HPM_P2
2023/01/09 00:00:48;;;;;;;8.30;7.50;;;19.70;56.70;;;;;;222701;1269;24087;-46
2023/01/09 00:05:59;;;;;;;8.80;7.90;;;19.70;56.60;;;;;;222401;1269;24366;-48
2023/01/09 00:11:04;;;;;;;8.90;8.00;;;19.70;56.90;;;;;;222745;1269;22522;-47
2023/01/09 00:16:09;;;;;;;9.10;8.10;;;19.70;56.60;;;;;;222632;1269;22982;-47
2023/01/09 00:21:13;;;;;;;8.70;7.80;;;19.70;56.90;;;;;;222579;1269;22898;-48
2023/01/09 00:26:19;;;;;;;8.10;7.30;;;19.70;56.30;;;;;;222572;1269;22515;-47
2023/01/09 00:31:23;;;;;;;8.30;7.50;;;19.60;56.60;;;;;;222528;1263;22870;-47
2023/01/09 00:36:29;;;;;;;8.40;7.60;;;19.50;56.60;;;;;;222576;1269;25366;-50
2023/01/09 00:41:40;;;;;;;8.30;7.50;;;19.50;56.60;;;;;;222440;1262;24238;-46
2023/01/09 00:46:49;;;;;;;8.70;7.70;;;19.60;56.50;;;;;;222762;1269;22620;-45
2023/01/09 00:51:54;;;;;;;8.70;7.70;;;19.60;56.40;;;;;;222667;1262;24444;-48
2023/01/09 00:56:59;;;;;;;8.20;7.40;;;19.50;56.40;;;;;;222186;1262;22640;-46
2023/01/09 01:02:04;;;;;;;8.20;7.40;;;19.60;56.70;;;;;;222557;1265;22646;-48
2023/01/09 01:12:31;;;;;;;7.90;7.10;;;19.50;56.80;;;;;;222301;1269;22545;-47
2023/01/09 01:17:37;;;;;;;8.30;7.50;;;19.50;56.30;;;;;;222775;1263;22520;-49
2023/01/09 01:22:41;;;;;;;8.40;7.60;;;19.50;56.10;;;;;;222646;1269;22550;-50
2023/01/09 01:27:46;;;;;;;9.10;8.20;;;19.50;56.40;;;;;;222636;1269;22636;-48
2023/01/09 01:32:50;;;;;;;9.00;8.10;;;19.40;56.40;;;;;;222493;1265;22653;-47
2023/01/09 01:37:54;;;;;;;8.80;7.90;;;19.40;56.40;;;;;;222806;1266;22525;-47
2023/01/09 01:42:59;;;;;;;9.20;7.90;;;19.40;56.20;;;;;;222701;1262;22700;-50
2023/01/09 01:48:14;;;;;;;8.80;7.90;;;19.40;56.30;;;;;;222554;1269;24156;-45
2023/01/09 01:53:23;;;;;;;8.60;7.70;;;19.40;56.30;;;;;;222559;1268;26059;-49
2023/01/09 01:58:28;;;;;;;9.30;8.30;;;19.40;56.90;;;;;;222503;1263;22534;-49
2023/01/09 02:03:34;;;;;;;8.60;7.70;;;19.40;56.50;;;;;;222546;1266;25426;-45
2023/01/09 02:08:38;;;;;;;9.20;8.30;;;19.40;56.20;;;;;;222608;1262;239465;-46
2023/01/09 02:13:43;;;;;;;9.70;8.50;;;19.30;56.20;;;;;;222598;1269;22655;-48
2023/01/09 02:19:16;;;;;;;9.00;8.10;;;19.40;56.00;;;;;;222753;1264;22656;-47
2023/01/09 02:24:34;;;;;;;8.20;7.50;;;19.20;56.00;;;;;;222845;1269;22513;-49
2023/01/09 02:30:10;;;;;;;8.30;7.50;;;19.30;56.30;;;;;;222656;1269;22649;-48
2023/01/09 02:35:34;;;;;;;9.80;8.00;;;19.30;56.20;;;;;;222833;1265;22554;-49
2023/01/09 02:40:46;;;;;;;9.30;8.10;;;19.20;56.10;;;;;;222641;1269;22743;-45
2023/01/09 02:45:51;;;;;;;8.40;7.40;;;19.30;56.00;;;;;;222672;1262;22521;-46
2023/01/09 02:51:07;;;;;;;9.10;8.20;;;19.10;56.20;;;;;;222544;1256;22524;-47
2023/01/09 02:56:50;;;;;;;9.00;8.10;;;19.20;56.30;;;;;;222638;1269;22514;-49
2023/01/09 03:02:16;;;;;;;8.80;7.90;;;19.20;56.10;;;;;;222197;1269;22598;-46
2023/01/09 03:07:36;;;;;;;9.30;8.40;;;19.20;56.00;;;;;;222312;1263;24319;-47
2023/01/09 03:12:42;;;;;;;9.40;8.40;;;19.20;55.80;;;;;;222661;1269;25133;-47
2023/01/09 03:17:49;;;;;;;9.40;8.40;;;19.20;56.00;;;;;;222667;1265;25593;-48
2023/01/09 03:22:56;;;;;;;9.30;8.10;;;19.00;56.10;;;;;;222800;1265;25288;-46
2023/01/09 03:28:03;;;;;;;9.50;8.60;;;19.10;56.20;;;;;;222429;1265;22530;-47
2023/01/09 03:33:07;;;;;;;8.60;7.70;;;19.00;56.50;;;;;;222785;1262;25285;-45
2023/01/09 03:38:12;;;;;;;8.80;7.90;;;19.00;56.60;;;;;;222689;1269;22527;-47
2023/01/09 03:43:16;;;;;;;9.20;8.30;;;19.00;56.40;;;;;;222656;1269;22768;-48
2023/01/09 03:48:20;;;;;;;9.10;8.20;;;18.90;56.40;;;;;;222496;1266;22530;-47
2023/01/09 03:53:27;;;;;;;9.20;8.30;;;18.90;56.80;;;;;;222649;1269;25392;-46
2023/01/09 03:58:31;;;;;;;8.80;7.90;;;18.90;56.20;;;;;;222566;1246;24344;-51
2023/01/09 04:03:35;;;;;;;8.20;7.40;;;18.90;56.20;;;;;;222508;1266;25606;-46
2023/01/09 04:08:39;;;;;;;8.80;8.00;;;18.80;56.40;;;;;;222653;1269;22617;-46
2023/01/09 04:13:44;;;;;;;8.70;7.50;;;18.80;56.50;;;;;;222787;1261;22671;-46
2023/01/09 04:18:48;;;;;;;9.40;8.40;;;18.80;56.20;;;;;;222452;1261;22531;-49
2023/01/09 04:23:52;;;;;;;8.20;7.40;;;18.80;56.40;;;;;;222528;1269;22999;-49
2023/01/09 04:28:57;;;;;;;8.80;7.90;;;18.80;56.40;;;;;;222512;1269;22520;-47
2023/01/09 04:34:01;;;;;;;8.30;7.50;;;18.70;56.50;;;;;;222332;1269;22553;-50
2023/01/09 04:39:05;;;;;;;9.60;8.20;;;18.70;56.40;;;;;;222471;1269;24891;-48
2023/01/09 04:44:09;;;;;;;8.90;7.30;;;18.70;56.90;;;;;;222713;1263;22609;-46
2023/01/09 04:49:14;;;;;;;8.90;8.00;;;18.60;56.70;;;;;;222596;1265;22517;-46
2023/01/09 04:54:18;;;;;;;8.60;7.80;;;18.70;56.40;;;;;;222482;1265;25365;-46
2023/01/09 04:59:23;;;;;;;8.90;8.00;;;18.60;56.70;;;;;;222310;1263;24234;-49
2023/01/09 05:04:27;;;;;;;8.90;8.00;;;18.70;56.30;;;;;;222711;1265;26465;-47
2023/01/09 05:09:32;;;;;;;8.30;7.40;;;18.60;56.50;;;;;;222178;1263;22986;-47
2023/01/09 05:14:36;;;;;;;8.50;7.60;;;18.60;56.60;;;;;;222492;1270;24219;-48
2023/01/09 05:19:44;;;;;;;8.20;7.40;;;18.50;56.50;;;;;;222652;1269;22636;-49
2023/01/09 05:24:48;;;;;;;8.90;7.60;;;18.50;56.60;;;;;;222596;1269;22522;-46
2023/01/09 05:29:53;;;;;;;8.50;7.50;;;18.50;56.20;;;;;;222567;1269;23743;-46
2023/01/09 05:34:57;;;;;;;9.00;8.10;;;18.50;56.70;;;;;;222607;1269;22713;-46
2023/01/09 05:40:02;;;;;;;7.80;7.00;;;18.50;56.70;;;;;;222656;1268;24386;-48
2023/01/09 05:45:07;;;;;;;8.50;7.60;;;18.50;56.60;;;;;;222715;1269;22524;-45
2023/01/09 05:50:33;;;;;;;7.80;7.10;;;18.40;57.10;;;;;;222412;1265;24226;-48
2023/01/09 05:55:37;;;;;;;7.60;6.90;;;18.60;56.30;;;;;;222527;1265;24141;-48
2023/01/09 06:00:42;;;;;;;7.90;7.20;;;18.60;56.00;;;;;;222663;1246;24203;-46
2023/01/09 06:05:53;;;;;;;8.60;7.70;;;18.50;56.40;;;;;;222590;1269;22680;-47
2023/01/09 06:10:59;;;;;;;8.40;7.60;;;18.50;56.30;;;;;;222220;1262;22524;-46
2023/01/09 06:16:04;;;;;;;8.10;7.40;;;18.50;56.80;;;;;;222601;1269;23096;-46
2023/01/09 06:21:08;;;;;;;8.10;7.30;;;18.50;56.50;;;;;;222539;1269;24436;-47
2023/01/09 06:26:12;;;;;;;8.50;7.70;;;18.50;56.40;;;;;;222528;1266;22524;-46
2023/01/09 06:31:17;;;;;;;7.30;6.60;;;18.40;57.00;;;;;;222490;1265;22644;-47
2023/01/09 06:36:21;;;;;;;7.30;6.60;;;18.40;56.50;;;;;;222507;1265;22530;-49
2023/01/09 06:41:30;;;;;;;7.70;7.00;;;18.40;56.50;;;;;;222601;1269;24328;-49
2023/01/09 06:46:35;;;;;;;7.60;6.80;;;18.40;56.50;;;;;;222790;1263;22530;-47
2023/01/09 06:51:39;;;;;;;8.10;7.30;;;18.40;56.70;;;;;;222522;1269;22520;-47
2023/01/09 06:56:44;;;;;;;7.20;6.60;;;18.40;56.30;;;;;;222280;1269;22543;-51
2023/01/09 07:01:48;;;;;;;7.60;6.90;;;18.30;56.80;;;;;;222230;1269;22534;-46
2023/01/09 07:06:53;;;;;;;8.70;7.30;;;18.50;56.50;;;;;;222410;1265;22736;-49
2023/01/09 07:11:59;;;;;;;8.00;7.10;;;18.30;56.40;;;;;;222490;1268;22518;-46
2023/01/09 07:17:04;;;;;;;7.70;6.80;;;18.30;56.40;;;;;;222361;1265;22583;-49
2023/01/09 07:22:18;;;;;;;8.00;7.10;;;18.30;56.80;;;;;;222431;1263;24063;-49
2023/01/09 07:27:22;;;;;;;8.20;7.40;;;18.40;56.10;;;;;;222264;1265;22639;-49
2023/01/09 07:32:29;;;;;;;7.20;6.50;;;18.40;56.60;;;;;;222453;1265;22543;-49
2023/01/09 07:37:54;;;;;;;7.80;7.00;;;18.30;56.50;;;;;;222358;1269;23586;-46
2023/01/09 07:42:58;;;;;;;7.60;6.80;;;18.20;56.50;;;;;;222412;1269;22601;-49
2023/01/09 07:48:03;;;;;;;8.90;6.80;;;18.20;56.60;;;;;;222254;1269;24208;-49
2023/01/09 07:53:07;;;;;;;8.30;7.00;;;18.30;56.20;;;;;;222491;1265;22546;-48
2023/01/09 07:58:12;;;;;;;7.90;7.10;;;18.20;56.60;;;;;;222605;1265;22530;-47
2023/01/09 08:03:16;;;;;;;7.80;7.00;;;18.20;56.80;;;;;;222447;1269;24209;-46
2023/01/09 08:08:22;;;;;;;8.20;7.40;;;18.20;56.60;;;;;;222580;1265;22532;-50
2023/01/09 08:13:26;;;;;;;7.20;6.50;;;18.20;56.40;;;;;;222465;1264;22523;-48
2023/01/09 08:18:30;;;;;;;7.70;7.00;;;18.10;56.70;;;;;;222701;1269;22606;-46
2023/01/09 08:23:38;;;;;;;9.00;6.90;;;18.30;56.20;;;;;;222264;1269;22547;-48
2023/01/09 08:28:42;;;;;;;7.50;6.80;;;18.20;56.40;;;;;;222437;1265;22613;-50
2023/01/09 08:33:46;;;;;;;7.30;6.60;;;18.10;56.60;;;;;;222317;1245;22528;-46
2023/01/09 08:38:51;;;;;;;6.80;6.20;;;18.30;56.20;;;;;;222514;1269;23516;-48
2023/01/09 08:49:21;;;;;;;6.60;6.00;;;18.10;56.80;;;;;;222626;1269;22640;-46
2023/01/09 08:54:25;;;;;;;7.50;6.70;;;18.10;57.00;;;;;;222898;1269;22636;-47
2023/01/09 08:59:29;;;;;;;7.70;6.90;;;18.10;56.60;;;;;;222683;1269;22536;-51
2023/01/09 09:04:33;;;;;;;7.60;6.90;;;18.20;56.20;;;;;;222251;1269;22533;-45
2023/01/09 09:09:38;;;;;;;7.10;6.50;;;18.10;56.30;;;;;;222512;1262;22536;-46
2023/01/09 09:20:07;;;;;;;6.90;6.30;;;18.10;56.90;;;;;;222554;1265;22776;-48
2023/01/09 09:25:11;;;;;;;8.00;7.30;;;18.20;56.30;;;;;;222586;1265;24474;-45
2023/01/09 09:30:17;;;;;;;7.50;6.80;;;18.10;56.30;;;;;;222526;1265;22522;-49
2023/01/09 09:35:22;;;;;;;6.60;6.00;;;18.10;56.30;;;;;;222358;1269;27497;-48
2023/01/09 09:40:44;;;;;;;8.00;7.20;;;18.10;56.30;;;;;;222542;1269;24206;-46
2023/01/09 09:45:59;;;;;;;6.40;5.90;;;18.20;56.30;;;;;;222577;1269;25520;-46
2023/01/09 09:51:28;;;;;;;7.70;6.90;;;18.20;56.00;;;;;;222491;1265;24245;-47
2023/01/09 09:56:38;;;;;;;6.80;6.20;;;18.10;56.10;;;;;;222862;1269;24493;-48
2023/01/09 10:02:06;;;;;;;6.80;6.20;;;18.00;56.60;;;;;;222746;1269;22540;-47
2023/01/09 10:07:41;;;;;;;7.70;6.90;;;18.00;56.70;;;;;;222429;1265;25294;-47
2023/01/09 10:14:03;;;;;;;7.00;6.40;;;18.10;56.50;;;;;;222661;1263;22549;-47
2023/01/09 10:18:36;;;;;;;6.90;6.20;;;18.20;56.20;;;;;;222584;1266;22631;-47
2023/01/09 10:23:53;;;;;;;7.40;6.70;;;18.10;56.10;;;;;;222374;1265;22515;-49
2023/01/09 10:29:24;;;;;;;8.00;7.00;;;18.10;56.20;;;;;;222712;1269;22613;-47
2023/01/09 10:34:49;;;;;;;6.70;6.10;;;18.10;56.10;;;;;;222696;1265;22530;-47
2023/01/09 10:39:59;;;;;;;7.90;6.10;;;18.20;56.00;;;;;;222531;1263;24279;-47
2023/01/09 10:45:20;;;;;;;7.50;6.80;;;18.20;55.80;;;;;;222330;1268;22709;-48
2023/01/09 10:50:30;;;;;;;7.10;6.50;;;18.20;55.70;;;;;;222216;1262;22530;-48
2023/01/09 10:55:48;;;;;;;7.10;6.40;;;18.20;55.90;;;;;;222373;1269;26467;-45
2023/01/09 11:00:52;;;;;;;7.40;6.70;;;18.30;55.40;;;;;;222236;1269;24232;-47
2023/01/09 11:05:58;;;;;;;6.90;6.20;;;18.10;56.20;;;;;;222596;1263;25287;-50
2023/01/09 11:11:03;;;;;;;7.10;6.50;;;18.00;56.30;;;;;;222476;1245;24186;-47
2023/01/09 11:16:10;;;;;;;7.20;6.40;;;18.10;56.20;;;;;;222359;1269;22730;-45
2023/01/09 11:21:27;;;;;;;7.10;6.40;;;18.00;56.70;;;;;;222618;1269;24215;-46
2023/01/09 11:26:33;;;;;;;6.60;6.00;;;18.00;56.40;;;;;;222365;1269;22783;-50
2023/01/09 11:31:40;;;;;;;7.40;6.70;;;18.10;56.30;;;;;;222426;1263;24378;-46
2023/01/09 11:36:45;;;;;;;6.70;6.10;;;18.10;56.30;;;;;;222454;1263;23878;-47
2023/01/09 11:47:46;;;;;;;6.40;5.90;;;17.90;56.60;;;;;;222717;1269;22523;-52
2023/01/09 11:53:12;;;;;;;6.50;5.90;;;17.90;56.60;;;;;;222546;1251;24273;-46
2023/01/09 11:58:20;;;;;;;6.20;5.80;;;17.90;56.60;;;;;;222613;1262;22751;-46
2023/01/09 12:04:02;;;;;;;6.80;6.20;;;17.80;57.20;;;;;;222466;1262;22641;-47
2023/01/09 12:09:15;;;;;;;6.50;6.00;;;17.80;56.80;;;;;;222793;1265;22571;-46
2023/01/09 12:14:57;;;;;;;6.60;6.00;;;17.90;56.80;;;;;;222395;1269;25447;-50
2023/01/09 12:20:12;;;;;;;6.70;6.10;;;17.90;56.70;;;;;;222422;1266;24354;-50
2023/01/09 12:25:40;;;;;;;6.50;5.90;;;18.00;56.60;;;;;;222717;1267;22520;-46
2023/01/09 12:30:51;;;;;;;6.60;6.00;;;17.90;56.60;;;;;;222504;1255;25388;-49
2023/01/09 12:36:14;;;;;;;6.90;6.20;;;17.90;56.60;;;;;;222709;1269;22605;-46
2023/01/09 12:41:21;;;;;;;6.80;6.20;;;17.90;56.70;;;;;;222361;1267;23333;-48
2023/01/09 12:46:49;;;;;;;7.30;6.50;;;18.00;56.80;;;;;;222477;1269;22527;-49
2023/01/09 12:52:16;;;;;;;7.00;6.30;;;17.90;56.50;;;;;;222343;1269;22528;-49
2023/01/09 12:57:30;;;;;;;6.50;5.90;;;17.90;56.60;;;;;;222397;1265;22744;-50
2023/01/09 13:02:38;;;;;;;6.20;5.70;;;17.80;56.30;;;;;;222444;1251;24311;-48
2023/01/09 13:08:05;;;;;;;6.80;6.20;;;17.80;56.80;;;;;;222748;1269;22696;-49
2023/01/09 13:13:41;;;;;;;6.30;5.70;;;17.90;56.70;;;;;;222770;1269;22657;-47
2023/01/09 13:18:58;;;;;;;7.00;6.30;;;17.90;57.10;;;;;;222429;1269;22541;-50
2023/01/09 13:24:17;;;;;;;6.80;6.10;;;17.80;57.30;;;;;;222873;1269;24303;-48
2023/01/09 13:29:27;;;;;;;7.20;6.50;;;17.80;56.80;;;;;;222810;1269;26623;-48
2023/01/09 13:34:35;;;;;;;6.50;5.90;;;17.80;56.80;;;;;;222571;1269;26188;-47
2023/01/09 13:39:41;;;;;;;6.10;5.50;;;17.80;56.70;;;;;;222582;1269;25339;-45
2023/01/09 13:44:54;;;;;;;6.80;6.20;;;17.80;56.80;;;;;;222667;1269;22658;-49
2023/01/09 13:50:04;;;;;;;6.80;6.20;;;17.80;56.60;;;;;;222352;1269;25335;-47
2023/01/09 13:55:14;;;;;;;6.60;6.00;;;17.90;56.60;;;;;;222541;1269;22574;-48
2023/01/09 14:00:18;;;;;;;5.80;5.20;;;18.00;56.10;;;;;;222473;1259;23322;-47
2023/01/09 14:05:23;;;;;;;5.80;5.20;;;18.00;56.40;;;;;;222586;1269;23333;-49
2023/01/09 14:10:54;;;;;;;6.00;5.50;;;18.00;56.20;;;;;;221886;1269;971956;-47
2023/01/09 14:16:19;;;;;;;6.50;5.90;;;17.90;56.50;;;;;;222220;1266;22708;-48
2023/01/09 14:21:23;;;;;;;6.10;5.50;;;17.90;56.60;;;;;;222432;1266;25236;-48
2023/01/09 14:26:51;;;;;;;6.00;5.40;;;17.90;56.70;;;;;;222758;1269;22691;-47
2023/01/09 14:32:21;;;;;;;6.00;5.50;;;17.90;56.70;;;;;;222617;1269;24204;-48
2023/01/09 14:37:29;;;;;;;6.30;5.70;;;17.90;56.50;;;;;;222680;1269;22525;-51
2023/01/09 14:42:39;;;;;;;5.80;5.30;;;17.80;56.50;;;;;;222251;1269;22527;-49
2023/01/09 14:47:54;;;;;;;6.20;5.70;;;17.80;56.60;;;;;;222287;1269;24209;-46
2023/01/09 14:53:20;;;;;;;5.60;5.10;;;17.90;56.60;;;;;;222734;1263;25341;-48
2023/01/09 14:58:27;;;;;;;6.20;5.60;;;17.80;56.60;;;;;;222395;1269;22583;-47
2023/01/09 15:03:42;;;;;;;5.60;5.10;;;17.80;56.80;;;;;;222503;1269;22539;-47
2023/01/09 15:09:10;;;;;;;5.70;5.20;;;17.80;56.50;;;;;;222743;1264;24278;-45
2023/01/09 15:14:31;;;;;;;5.70;5.20;;;17.70;56.80;;;;;;222337;1269;22640;-49
2023/01/09 15:19:37;;;;;;;5.40;4.90;;;17.70;57.10;;;;;;222625;1269;25291;-48
2023/01/09 15:24:41;;;;;;;5.90;5.40;;;17.80;56.80;;;;;;222319;1269;23880;-46
2023/01/09 15:29:45;;;;;;;5.70;5.30;;;17.80;56.60;;;;;;222994;1269;24216;-50
2023/01/09 15:34:50;;;;;;;5.80;5.30;;;17.70;56.80;;;;;;222575;1264;22773;-46
2023/01/09 15:39:56;;;;;;;6.30;5.70;;;17.70;56.90;;;;;;222706;1260;23932;-46
2023/01/09 15:45:01;;;;;;;5.70;5.30;;;17.70;56.70;;;;;;222426;1269;22534;-46
2023/01/09 15:50:05;;;;;;;5.70;5.20;;;17.70;57.00;;;;;;222325;1264;25419;-47
2023/01/09 15:55:36;;;;;;;5.80;5.30;;;17.70;56.80;;;;;;222677;1269;23519;-48
2023/01/09 16:00:42;;;;;;;5.60;5.10;;;17.80;56.50;;;;;;222485;1269;25294;-47
2023/01/09 16:05:51;;;;;;;5.70;5.20;;;17.70;56.80;;;;;;222513;1264;24226;-47
2023/01/09 16:11:00;;;;;;;5.90;5.30;;;17.70;56.60;;;;;;222454;1260;22651;-47
2023/01/09 16:16:05;;;;;;;5.50;5.00;;;17.70;56.60;;;;;;222730;1269;22687;-47
2023/01/09 16:21:42;;;;;;;5.30;4.90;;;17.70;56.90;;;;;;222727;1266;22524;-46
2023/01/09 16:26:46;;;;;;;5.20;4.70;;;17.70;56.60;;;;;;221173;1276;22546;-49
2023/01/09 16:31:57;;;;;;;5.50;5.00;;;17.70;56.60;;;;;;220929;1273;22548;-49
2023/01/09 16:37:04;;;;;;;5.20;4.70;;;17.70;57.00;;;;;;220953;1276;22637;-49
2023/01/09 16:47:31;;;;;;;5.40;4.90;;;17.60;56.60;;;;;;221241;1276;22531;-48
2023/01/09 16:52:35;;;;;;;5.10;4.70;;;17.70;56.60;;;;;;220925;1273;22534;-48
2023/01/09 16:57:40;;;;;;;5.00;4.60;;;17.70;56.50;;;;;;221029;1270;22617;-46
2023/01/09 17:02:45;;;;;;;4.70;4.30;;;17.70;56.40;;;;;;222306;1269;24251;-52
2023/01/09 17:07:49;;;;;;;5.00;4.60;;;17.80;56.30;;;;;;222428;1269;25498;-48
2023/01/09 17:12:54;;;;;;;5.50;5.10;;;17.80;56.30;;;;;;222814;1269;24206;-46
2023/01/09 17:17:59;;;;;;;5.20;4.80;;;17.70;56.30;;;;;;222500;1269;22557;-49
2023/01/09 17:23:04;;;;;;;4.90;4.50;;;17.70;56.30;;;;;;222761;1269;22647;-48
2023/01/09 17:28:32;;;;;;;5.10;4.60;;;17.70;56.40;;;;;;222626;1266;22683;-47
2023/01/09 17:33:38;;;;;;;5.20;4.80;;;17.80;56.10;;;;;;222255;1267;24157;-49
2023/01/09 17:38:42;;;;;;;4.90;4.40;;;17.80;56.20;;;;;;222581;1269;25011;-47
2023/01/09 17:43:46;;;;;;;5.30;4.90;;;17.70;56.60;;;;;;222954;1267;25216;-46
2023/01/09 17:48:52;;;;;;;4.70;4.30;;;17.70;56.50;;;;;;222608;1261;23029;-49
2023/01/09 17:53:56;;;;;;;5.00;4.60;;;17.70;56.40;;;;;;222330;1269;22537;-47
2023/01/09 17:59:01;;;;;;;4.50;4.10;;;17.60;56.60;;;;;;222354;1269;23730;-48
2023/01/09 18:04:05;;;;;;;5.10;4.60;;;17.60;56.40;;;;;;222656;1268;22617;-47
2023/01/09 18:09:14;;;;;;;4.50;4.20;;;17.60;56.50;;;;;;222640;1266;22541;-46
2023/01/09 18:14:18;;;;;;;4.70;4.30;;;17.60;56.60;;;;;;222294;1269;25236;-48
2023/01/09 18:19:23;;;;;;;5.00;4.60;;;17.60;56.50;;;;;;222553;1269;22536;-48
2023/01/09 18:24:27;;;;;;;5.20;4.80;;;17.60;56.50;;;;;;222681;1269;22530;-47
2023/01/09 18:29:32;;;;;;;5.30;4.80;;;17.60;56.90;;;;;;222453;1269;24346;-47
2023/01/09 18:34:37;;;;;;;4.50;4.10;;;17.70;56.30;;;;;;222655;1269;22527;-45
2023/01/09 18:39:42;;;;;;;4.70;4.20;;;17.70;56.80;;;;;;222673;1269;24224;-45
2023/01/09 18:44:47;;;;;;;4.70;4.30;;;17.70;56.90;;;;;;222732;1266;22608;-46
2023/01/09 18:49:51;;;;;;;4.40;4.00;;;17.60;56.40;;;;;;222959;1269;22647;-46
2023/01/09 18:54:57;;;;;;;4.50;4.10;;;17.70;56.20;;;;;;222965;1269;22520;-48
2023/01/09 19:00:04;;;;;;;4.80;4.40;;;17.60;56.10;;;;;;222686;1266;22548;-51
2023/01/09 19:05:09;;;;;;;4.70;4.30;;;17.70;56.30;;;;;;222752;1265;22528;-47
2023/01/09 19:10:14;;;;;;;4.40;4.00;;;17.70;56.10;;;;;;222488;1269;25338;-47
2023/01/09 19:15:21;;;;;;;4.60;4.20;;;17.60;56.40;;;;;;222793;1269;22627;-48
2023/01/09 19:20:27;;;;;;;4.60;4.20;;;17.60;56.70;;;;;;222447;1267;22550;-49
2023/01/09 19:25:31;;;;;;;4.40;4.00;;;17.60;56.50;;;;;;222828;1269;25399;-46
2023/01/09 19:30:38;;;;;;;4.90;4.50;;;17.60;56.50;;;;;;222780;1269;22540;-46
2023/01/09 19:35:48;;;;;;;4.30;3.90;;;17.50;56.40;;;;;;222248;1269;24394;-49
2023/01/09 19:40:53;;;;;;;4.20;3.80;;;17.50;56.60;;;;;;222887;1268;22643;-49
2023/01/09 19:45:57;;;;;;;4.60;4.20;;;17.60;56.70;;;;;;222855;1269;25284;-47
2023/01/09 19:51:04;;;;;;;4.30;4.00;;;17.50;56.40;;;;;;222925;1265;22576;-47
2023/01/09 19:56:13;;;;;;;4.20;3.90;;;17.50;56.90;;;;;;222558;1269;22566;-50
2023/01/09 20:01:25;;;;;;;4.90;4.50;;;17.50;56.60;;;;;;222476;1262;24029;-48
2023/01/09 20:06:33;;;;;;;4.60;4.20;;;17.50;56.60;;;;;;222782;1269;24224;-49
2023/01/09 20:11:40;;;;;;;4.00;3.70;;;17.50;56.50;;;;;;222292;1267;25342;-47
2023/01/09 20:16:47;;;;;;;4.40;4.00;;;17.40;56.70;;;;;;223043;1269;24209;-45
2023/01/09 20:21:53;;;;;;;4.00;3.60;;;17.50;56.50;;;;;;222301;1247;22624;-46
2023/01/09 20:26:57;;;;;;;4.30;3.90;;;17.50;56.40;;;;;;222907;1265;24378;-47
2023/01/09 20:32:06;;;;;;;4.10;3.80;;;17.50;56.40;;;;;;222504;1269;25401;-46
2023/01/09 20:37:12;;;;;;;4.10;3.80;;;17.40;56.50;;;;;;222685;1269;25226;-47
2023/01/09 20:42:17;;;;;;;4.20;3.90;;;17.40;56.50;;;;;;222744;1269;22575;-48
2023/01/09 20:47:22;;;;;;;4.40;4.00;;;17.50;56.80;;;;;;222347;1269;24196;-48
2023/01/09 20:52:27;;;;;;;4.60;4.20;;;17.50;56.40;;;;;;222481;1267;23926;-49
2023/01/09 20:57:32;;;;;;;4.40;4.00;;;17.50;56.10;;;;;;222613;1268;22651;-46
2023/01/09 21:02:36;;;;;;;4.00;3.70;;;17.50;56.40;;;;;;222145;1262;25250;-48
2023/01/09 21:07:40;;;;;;;4.70;4.30;;;17.40;56.60;;;;;;222844;1263;22536;-51
2023/01/09 21:12:45;;;;;;;4.30;3.90;;;17.40;56.60;;;;;;222526;1269;26596;-46
2023/01/09 21:17:49;;;;;;;4.70;4.30;;;17.40;56.40;;;;;;222305;1265;25235;-47
2023/01/09 21:22:53;;;;;;;4.60;4.20;;;17.40;56.40;;;;;;222838;1269;26191;-46
2023/01/09 21:28:01;;;;;;;4.60;4.10;;;17.40;56.30;;;;;;222791;1269;22538;-47
2023/01/09 21:33:06;;;;;;;4.60;4.20;;;17.40;56.50;;;;;;222560;1269;24325;-49
2023/01/09 21:38:10;;;;;;;4.50;4.10;;;17.30;56.50;;;;;;222823;1269;22547;-46
2023/01/09 21:48:49;;;;;;;3.90;3.60;;;17.30;56.50;;;;;;222684;1265;22523;-49
2023/01/09 21:53:53;;;;;;;5.10;4.60;;;17.30;56.60;;;;;;222401;1262;23275;-50
2023/01/09 21:58:57;;;;;;;5.40;4.90;;;17.30;56.50;;;;;;222497;1269;25407;-48
2023/01/09 22:04:02;;;;;;;4.90;4.40;;;17.30;56.50;;;;;;222661;1269;22604;-49
2023/01/09 22:09:06;;;;;;;5.10;4.60;;;17.40;56.70;;;;;;222528;1268;24206;-47
2023/01/09 22:14:13;;;;;;;5.30;4.80;;;17.40;56.20;;;;;;222515;1269;24193;-46
2023/01/09 22:19:17;;;;;;;4.90;4.50;;;17.30;56.40;;;;;;222639;1262;22524;-47
2023/01/09 22:24:22;;;;;;;5.40;4.90;;;17.40;56.20;;;;;;222514;1269;24221;-49
2023/01/09 22:29:26;;;;;;;6.20;5.60;;;17.30;56.20;;;;;;222698;1264;22540;-48
2023/01/09 22:34:30;;;;;;;5.00;4.60;;;17.30;56.30;;;;;;222370;1265;22521;-46
2023/01/09 22:39:35;;;;;;;5.80;5.30;;;17.30;56.60;;;;;;222367;1269;24378;-46
2023/01/09 22:44:39;;;;;;;5.70;5.20;;;17.30;56.50;;;;;;222280;1269;22531;-47
2023/01/09 22:49:43;;;;;;;6.50;5.70;;;17.20;57.10;;;;;;222700;1269;22740;-48
2023/01/09 22:54:56;;;;;;;5.60;5.10;;;17.30;56.80;;;;;;222752;1269;22531;-48
2023/01/09 23:00:00;;;;;;;6.60;5.50;;;17.20;56.50;;;;;;222215;1269;25564;-48
2023/01/09 23:05:05;;;;;;;8.10;6.80;;;17.30;56.40;;;;;;222891;1269;22563;-50
2023/01/09 23:10:09;;;;;;;6.20;5.60;;;17.20;56.50;;;;;;222642;1257;22514;-50
2023/01/09 23:15:14;;;;;;;6.10;5.50;;;17.30;56.50;;;;;;222709;1269;22643;-47
2023/01/09 23:20:18;;;;;;;6.00;5.40;;;17.20;56.90;;;;;;222377;1265;22524;-49
2023/01/09 23:25:23;;;;;;;5.60;5.10;;;17.20;56.70;;;;;;222629;1265;24238;-47
2023/01/09 23:30:27;;;;;;;6.30;5.70;;;17.20;56.20;;;;;;222619;1269;25288;-49
2023/01/09 23:35:32;;;;;;;5.80;5.30;;;17.30;56.50;;;;;;222693;1265;22534;-46
2023/01/09 23:40:37;;;;;;;5.70;5.20;;;17.30;56.50;;;;;;222645;1269;25342;-48
2023/01/09 23:45:43;;;;;;;5.80;5.30;;;17.20;56.50;;;;;;222412;1263;24322;-49
2023/01/09 23:50:50;;;;;;;6.40;5.20;;;17.30;56.20;;;;;;222513;1265;25410;-46
2023/01/09 23:55:54;;;;;;;6.30;5.70;;;17.20;56.30;;;;;;222464;1269;22533;-50
